createdAt,value
2023-01-13T00:02:24.208Z,7.84
2023-01-13T00:06:08.751Z,7.82
2023-01-13T00:09:51.466Z,7.81
2023-01-13T00:13:35.439Z,7.90
2023-01-13T00:17:18.206Z,7.86
2023-01-13T00:21:01.408Z,7.90
2023-01-13T00:24:45.383Z,7.89
2023-01-13T00:28:28.049Z,7.88
2023-01-13T00:32:10.744Z,7.92
2023-01-13T00:35:58.370Z,7.88
2023-01-13T00:39:41.122Z,7.90
2023-01-13T00:43:26.720Z,7.97
2023-01-13T00:47:09.325Z,7.92
2023-01-13T00:50:56.351Z,7.92
2023-01-13T00:54:39.005Z,7.93
2023-01-13T00:58:21.658Z,7.92
2023-01-13T01:02:05.755Z,7.90
2023-01-13T01:05:48.413Z,7.92
2023-01-13T01:09:34.665Z,7.92
2023-01-13T01:13:17.443Z,7.98
2023-01-13T01:17:00.207Z,8.07
2023-01-13T01:20:44.180Z,8.05
2023-01-13T01:24:26.822Z,8.12
2023-01-13T01:28:09.670Z,8.13
2023-01-13T01:31:52.368Z,8.14
2023-01-13T01:35:35.138Z,8.15
2023-01-13T01:39:19.181Z,8.19
2023-01-13T01:43:19.282Z,8.20
2023-01-13T01:47:02.054Z,8.28
2023-01-13T01:50:44.859Z,8.22
2023-01-13T01:54:32.316Z,8.25
2023-01-13T01:58:20.945Z,8.25
2023-01-13T02:02:03.977Z,8.31
2023-01-13T02:05:46.738Z,8.35
2023-01-13T02:09:31.288Z,8.34
2023-01-13T02:13:14.417Z,8.49
2023-01-13T02:17:08.952Z,8.47
2023-01-13T02:21:15.732Z,8.55
2023-01-13T02:25:23.326Z,8.54
2023-01-13T02:29:31.131Z,8.50
2023-01-13T02:33:27.439Z,8.51
2023-01-13T02:37:15.184Z,8.44
2023-01-13T02:41:20.940Z,8.51
2023-01-13T02:45:07.084Z,8.49
2023-01-13T02:48:51.942Z,8.55
2023-01-13T02:52:37.273Z,8.51
2023-01-13T02:56:21.699Z,8.43
2023-01-13T03:00:05.606Z,8.48
2023-01-13T03:03:50.026Z,8.49
2023-01-13T03:07:45.529Z,8.51
2023-01-13T03:11:31.528Z,8.51
2023-01-13T03:15:18.872Z,8.56
2023-01-13T03:19:13.305Z,8.55
2023-01-13T03:23:01.320Z,8.59
2023-01-13T03:26:47.410Z,8.70
2023-01-13T03:30:33.290Z,8.74
2023-01-13T03:34:18.583Z,8.64
2023-01-13T03:38:06.899Z,8.60
2023-01-13T03:41:53.043Z,8.62
2023-01-13T03:45:37.338Z,8.63
2023-01-13T03:49:21.770Z,8.65
2023-01-13T03:53:08.690Z,8.65
2023-01-13T03:56:55.615Z,8.77
2023-01-13T04:00:41.389Z,8.73
2023-01-13T04:04:27.943Z,8.76
2023-01-13T04:08:17.999Z,8.78
2023-01-13T04:12:03.284Z,8.79
2023-01-13T04:15:47.919Z,8.74
2023-01-13T04:19:31.651Z,8.88
2023-01-13T04:23:16.397Z,8.87
2023-01-13T04:26:59.043Z,8.93
2023-01-13T04:30:42.068Z,8.88
2023-01-13T04:34:26.384Z,8.96
2023-01-13T04:38:12.994Z,8.98
2023-01-13T04:42:01.287Z,9.07
2023-01-13T04:45:44.610Z,9.12
2023-01-13T04:49:27.316Z,9.18
2023-01-13T04:53:10.004Z,9.19
2023-01-13T04:56:52.717Z,9.25
2023-01-13T05:00:36.803Z,9.28
2023-01-13T05:04:19.526Z,9.30
2023-01-13T05:08:02.211Z,9.35
2023-01-13T05:12:05.001Z,9.35
2023-01-13T05:16:07.184Z,9.29
2023-01-13T05:19:50.359Z,9.33
2023-01-13T05:23:50.463Z,9.35
2023-01-13T05:27:33.577Z,9.40
2023-01-13T05:31:17.681Z,9.45
2023-01-13T05:35:00.485Z,9.40
2023-01-13T05:38:43.410Z,9.48
2023-01-13T05:42:43.518Z,9.44
2023-01-13T05:46:27.648Z,9.42
2023-01-13T05:50:11.685Z,9.44
2023-01-13T05:53:54.607Z,9.40
2023-01-13T05:57:37.809Z,9.45
2023-01-13T06:01:20.614Z,9.45
2023-01-13T06:05:05.322Z,9.50
2023-01-13T06:08:48.038Z,9.46
2023-01-13T06:12:33.728Z,9.46
2023-01-13T06:16:16.579Z,9.38
2023-01-13T06:19:59.449Z,9.45
2023-01-13T06:23:43.487Z,9.46
2023-01-13T06:27:26.214Z,9.47
2023-01-13T06:31:10.622Z,9.42
2023-01-13T06:34:58.848Z,9.46
2023-01-13T06:38:46.250Z,9.44
2023-01-13T06:42:47.300Z,9.39
2023-01-13T06:46:30.054Z,9.38
2023-01-13T06:50:12.967Z,9.34
2023-01-13T06:53:57.104Z,9.27
2023-01-13T06:57:51.671Z,9.32
2023-01-13T07:01:34.492Z,9.33
2023-01-13T07:05:19.294Z,9.29
2023-01-13T07:09:04.635Z,9.26
2023-01-13T07:13:07.165Z,9.26
2023-01-13T07:16:50.421Z,9.25
2023-01-13T07:20:34.052Z,9.26
2023-01-13T07:24:18.296Z,9.19
2023-01-13T07:28:01.184Z,9.19
2023-01-13T07:31:43.959Z,9.16
2023-01-13T07:35:26.736Z,9.14
2023-01-13T07:39:09.432Z,9.13
2023-01-13T07:43:10.791Z,9.13
2023-01-13T07:46:53.511Z,9.06
2023-01-13T07:50:36.251Z,9.14
2023-01-13T07:54:19.421Z,9.11
2023-01-13T07:58:03.617Z,9.18
2023-01-13T08:01:46.451Z,9.20
2023-01-13T08:05:29.270Z,9.21
2023-01-13T08:09:12.107Z,9.21
2023-01-13T08:13:12.620Z,9.45
2023-01-13T08:16:56.690Z,9.65
2023-01-13T08:20:39.441Z,9.64
2023-01-13T08:24:22.188Z,9.52
2023-01-13T08:28:05.099Z,9.56
2023-01-13T08:31:47.799Z,9.52
2023-01-13T08:35:31.905Z,9.54
2023-01-13T08:39:14.620Z,9.55
2023-01-13T08:42:57.354Z,9.58
2023-01-13T08:46:40.073Z,9.57
2023-01-13T08:50:22.894Z,9.58
2023-01-13T08:54:07.057Z,9.57
2023-01-13T08:57:49.772Z,9.63
2023-01-13T09:01:32.905Z,9.69
2023-01-13T09:05:17.662Z,9.72
2023-01-13T09:09:02.380Z,9.79
2023-01-13T09:13:04.131Z,9.84
2023-01-13T09:16:46.858Z,9.87
2023-01-13T09:20:29.540Z,9.95
2023-01-13T09:24:12.250Z,10.02
2023-01-13T09:27:56.301Z,10.17
2023-01-13T09:31:39.128Z,10.24
2023-01-13T09:35:21.819Z,10.20
2023-01-13T09:39:05.659Z,10.24
2023-01-13T09:43:11.793Z,10.28
2023-01-13T09:47:00.162Z,10.31
2023-01-13T09:50:52.441Z,10.31
2023-01-13T09:54:41.529Z,10.45
2023-01-13T09:58:25.117Z,10.58
2023-01-13T10:02:30.315Z,10.52
2023-01-13T10:06:16.160Z,10.52
2023-01-13T10:10:00.759Z,10.54
2023-01-13T10:13:44.975Z,10.57
2023-01-13T10:17:34.344Z,10.55
2023-01-13T10:21:29.167Z,10.63
2023-01-13T10:25:32.490Z,10.67
2023-01-13T10:29:21.808Z,10.68
2023-01-13T10:33:12.507Z,10.65
2023-01-13T10:37:01.564Z,10.67
2023-01-13T10:40:50.343Z,10.68
2023-01-13T10:44:33.639Z,10.85
2023-01-13T10:48:17.967Z,11.00
2023-01-13T10:52:01.988Z,11.04
2023-01-13T10:55:59.746Z,11.13
2023-01-13T10:59:42.908Z,11.17
2023-01-13T11:03:27.934Z,11.20
2023-01-13T11:07:21.254Z,11.09
2023-01-13T11:11:04.280Z,10.93
2023-01-13T11:14:48.409Z,10.88
2023-01-13T11:18:41.175Z,10.90
2023-01-13T11:22:26.569Z,10.88
2023-01-13T11:26:14.230Z,10.93
2023-01-13T11:30:09.654Z,10.86
2023-01-13T11:33:57.498Z,10.81
2023-01-13T11:37:41.952Z,10.79
2023-01-13T11:41:43.421Z,10.80
2023-01-13T11:45:31.785Z,10.84
2023-01-13T11:49:23.325Z,10.72
2023-01-13T11:53:13.876Z,10.71
2023-01-13T11:57:19.268Z,10.69
2023-01-13T12:01:13.461Z,10.89
2023-01-13T12:05:02.703Z,10.65
2023-01-13T12:09:11.961Z,10.60
2023-01-13T12:13:00.309Z,10.56
2023-01-13T12:16:48.832Z,10.50
2023-01-13T12:20:38.280Z,10.47
2023-01-13T12:24:27.688Z,10.44
2023-01-13T12:28:14.150Z,10.51
2023-01-13T12:31:57.060Z,10.41
2023-01-13T12:35:43.384Z,10.39
2023-01-13T12:39:38.809Z,10.28
2023-01-13T12:43:40.099Z,10.22
2023-01-13T12:47:35.173Z,10.29
2023-01-13T12:51:27.680Z,10.15
2023-01-13T12:55:15.467Z,9.77
2023-01-13T12:59:40.005Z,9.60
2023-01-13T13:03:32.579Z,9.49
2023-01-13T13:07:19.807Z,9.52
2023-01-13T13:11:38.007Z,9.56
2023-01-13T13:15:22.027Z,9.66
2023-01-13T13:19:43.405Z,9.60
2023-01-13T13:23:48.234Z,9.71
2023-01-13T13:27:41.516Z,9.80
2023-01-13T13:31:39.082Z,9.93
2023-01-13T13:35:42.019Z,9.92
2023-01-13T13:39:45.824Z,9.85
2023-01-13T13:43:46.745Z,9.94
2023-01-13T13:47:36.293Z,10.08
2023-01-13T13:51:26.453Z,10.11
2023-01-13T13:55:18.491Z,9.82
2023-01-13T13:59:01.266Z,9.61
2023-01-13T14:02:49.313Z,9.67
2023-01-13T14:06:32.835Z,9.72
2023-01-13T14:10:20.668Z,9.52
2023-01-13T14:14:05.619Z,7.92
2023-01-13T14:17:49.268Z,6.52
2023-01-13T14:21:33.021Z,5.86
2023-01-13T14:25:38.259Z,5.43
2023-01-13T14:29:22.847Z,5.23
2023-01-13T14:33:06.352Z,5.18
2023-01-13T14:36:51.229Z,5.11
2023-01-13T14:40:47.951Z,5.02
2023-01-13T14:44:32.335Z,5.06
2023-01-13T14:48:15.126Z,5.08
2023-01-13T14:52:08.786Z,5.08
2023-01-13T14:55:52.957Z,5.05
2023-01-13T14:59:55.402Z,4.95
2023-01-13T15:03:42.307Z,4.97
2023-01-13T15:07:27.414Z,5.07
2023-01-13T15:11:21.846Z,5.24
2023-01-13T15:15:05.963Z,5.30
2023-01-13T15:18:49.359Z,5.31
2023-01-13T15:22:32.107Z,5.27
2023-01-13T15:26:20.253Z,5.08
2023-01-13T15:30:02.996Z,5.07
2023-01-13T15:33:45.707Z,5.06
2023-01-13T15:37:28.523Z,5.17
2023-01-13T15:41:13.498Z,5.19
2023-01-13T15:45:15.287Z,5.18
2023-01-13T15:48:58.567Z,5.11
2023-01-13T15:52:41.375Z,5.06
2023-01-13T15:56:26.553Z,5.01
2023-01-13T16:00:16.181Z,5.02
2023-01-13T16:04:01.405Z,4.98
2023-01-13T16:07:44.085Z,4.95
2023-01-13T16:11:26.808Z,5.05
2023-01-13T16:15:13.750Z,4.96
2023-01-13T16:18:57.040Z,5.00
2023-01-13T16:22:39.757Z,5.02
2023-01-13T16:26:24.465Z,5.06
2023-01-13T16:30:08.693Z,5.14
2023-01-13T16:33:52.978Z,5.24
2023-01-13T16:37:35.687Z,5.26
2023-01-13T16:41:19.291Z,5.34
2023-01-13T16:45:08.351Z,5.35
2023-01-13T16:48:53.421Z,5.41
2023-01-13T16:52:36.090Z,5.43
2023-01-13T16:56:27.122Z,5.54
2023-01-13T17:00:12.522Z,5.52
2023-01-13T17:03:57.014Z,5.55
2023-01-13T17:07:39.823Z,5.55
2023-01-13T17:11:22.690Z,5.52
2023-01-13T17:15:06.180Z,5.43
2023-01-13T17:18:49.451Z,5.40
2023-01-13T17:22:33.529Z,5.41
2023-01-13T17:26:32.083Z,5.54
2023-01-13T17:30:15.233Z,5.58
2023-01-13T17:33:58.044Z,5.58
2023-01-13T17:37:42.095Z,5.71
2023-01-13T17:41:25.398Z,5.63
2023-01-13T17:45:11.310Z,5.65
2023-01-13T17:48:54.097Z,5.87
2023-01-13T17:52:36.756Z,5.86
2023-01-13T17:56:20.920Z,5.98
2023-01-13T18:00:04.567Z,5.97
2023-01-13T18:03:47.381Z,6.01
2023-01-13T18:07:30.103Z,5.97
2023-01-13T18:11:12.867Z,6.04
2023-01-13T18:14:56.888Z,5.98
2023-01-13T18:18:41.684Z,6.07
2023-01-13T18:22:42.091Z,6.04
2023-01-13T18:26:53.938Z,6.05
2023-01-13T18:30:38.077Z,6.09
2023-01-13T18:34:22.718Z,6.01
2023-01-13T18:38:05.480Z,6.07
2023-01-13T18:42:05.786Z,6.01
2023-01-13T18:45:52.306Z,5.92
2023-01-13T18:49:35.070Z,5.81
2023-01-13T18:53:17.861Z,5.79
2023-01-13T18:57:02.744Z,5.80
2023-01-13T19:00:46.606Z,5.77
2023-01-13T19:04:32.489Z,5.70
2023-01-13T19:08:15.655Z,5.75
2023-01-13T19:11:59.144Z,5.65
2023-01-13T19:15:41.844Z,5.62
2023-01-13T19:19:24.537Z,5.61
2023-01-13T19:23:08.523Z,5.59
2023-01-13T19:26:51.224Z,5.51
2023-01-13T19:30:33.919Z,5.47
2023-01-13T19:34:16.854Z,5.45
2023-01-13T19:37:59.504Z,5.44
2023-01-13T19:42:01.085Z,5.43
2023-01-13T19:45:44.884Z,5.50
2023-01-13T19:49:27.515Z,5.46
2023-01-13T19:57:10.339Z,5.46
2023-01-13T20:00:53.831Z,5.49
2023-01-13T20:04:38.508Z,5.45
2023-01-13T20:08:21.790Z,5.45
2023-01-13T20:12:06.973Z,5.53
2023-01-13T20:15:50.970Z,6.16
2023-01-13T20:19:33.801Z,5.92
2023-01-13T20:23:16.491Z,5.79
2023-01-13T20:26:59.254Z,5.61
2023-01-13T20:30:41.937Z,5.33
2023-01-13T20:34:26.014Z,5.01
2023-01-13T20:38:08.798Z,4.56
2023-01-13T20:42:09.043Z,4.30
2023-01-13T20:45:51.687Z,4.20
2023-01-13T20:49:36.893Z,4.29
2023-01-13T20:53:19.533Z,4.35
2023-01-13T20:57:02.207Z,4.39
2023-01-13T21:00:44.918Z,4.38
2023-01-13T21:04:28.763Z,4.40
2023-01-13T21:08:12.951Z,4.41
2023-01-13T21:12:13.071Z,4.32
2023-01-13T21:15:56.315Z,4.28
2023-01-13T21:19:38.984Z,4.28
2023-01-13T21:23:22.969Z,4.17
2023-01-13T21:27:08.720Z,4.16
2023-01-13T21:30:52.725Z,4.13
2023-01-13T21:34:35.426Z,4.10
2023-01-13T21:38:18.076Z,4.00
2023-01-13T21:42:19.469Z,3.99
2023-01-13T21:46:19.948Z,3.90
2023-01-13T21:50:02.662Z,3.75
2023-01-13T21:53:45.337Z,3.75
2023-01-13T21:57:29.347Z,3.69
2023-01-13T22:01:12.275Z,3.67
2023-01-13T22:04:55.073Z,3.67
2023-01-13T22:08:37.776Z,3.67
2023-01-13T22:12:23.335Z,3.52
2023-01-13T22:16:09.173Z,3.47
2023-01-13T22:19:53.773Z,3.47
2023-01-13T22:23:36.426Z,3.55
2023-01-13T22:27:22.153Z,3.45
2023-01-13T22:31:10.942Z,3.41
2023-01-13T22:34:53.626Z,3.44
2023-01-13T22:38:36.621Z,3.41
2023-01-13T22:42:19.467Z,3.48
2023-01-13T22:46:04.604Z,3.46
2023-01-13T22:49:50.131Z,3.44
2023-01-13T22:53:35.492Z,3.52
2023-01-13T22:57:19.018Z,3.55
2023-01-13T23:01:10.110Z,3.64
2023-01-13T23:04:54.261Z,3.67
2023-01-13T23:08:37.343Z,3.79
2023-01-13T23:12:20.114Z,3.81
2023-01-13T23:16:06.981Z,3.85
2023-01-13T23:19:49.823Z,3.93
2023-01-13T23:23:34.873Z,4.67
2023-01-13T23:27:17.722Z,4.36
2023-01-13T23:31:00.649Z,4.22
2023-01-13T23:34:43.341Z,4.09
2023-01-13T23:38:26.116Z,4.05
2023-01-13T23:42:10.149Z,4.02
2023-01-13T23:45:53.688Z,4.00
2023-01-13T23:49:36.421Z,3.97
2023-01-13T23:53:19.052Z,3.95
2023-01-13T23:57:01.754Z,3.96
